createdAt,value
2023-04-08T00:01:14.803Z,25.40
2023-04-08T00:03:42.993Z,24.03
2023-04-08T00:06:10.622Z,25.70
2023-04-08T00:08:38.775Z,23.67
2023-04-08T00:11:07.440Z,26.33
2023-04-08T00:13:37.947Z,25.87
2023-04-08T00:16:06.003Z,24.67
2023-04-08T00:18:33.582Z,24.90
2023-04-08T00:21:01.028Z,26.67
2023-04-08T00:23:28.603Z,30.33
2023-04-08T00:25:56.701Z,21.70
2023-04-08T00:28:24.844Z,30.17
2023-04-08T00:30:53.978Z,24.20
2023-04-08T00:33:21.771Z,27.47
2023-04-08T00:35:50.297Z,25.83
2023-04-08T00:38:18.385Z,20.83
2023-04-08T00:40:46.470Z,22.93
2023-04-08T00:43:13.935Z,23.53
2023-04-08T00:45:41.943Z,23.17
2023-04-08T00:48:10.074Z,23.80
2023-04-08T00:50:37.992Z,24.13
2023-04-08T00:53:05.643Z,23.50
2023-04-08T00:55:34.022Z,21.10
2023-04-08T00:58:01.652Z,25.43
2023-04-08T01:00:30.208Z,24.93
2023-04-08T01:03:07.309Z,26.73
2023-04-08T01:05:43.995Z,18.55
2023-04-08T01:08:11.967Z,19.35
2023-04-08T01:10:41.516Z,21.87
2023-04-08T01:13:10.250Z,19.60
2023-04-08T01:15:39.116Z,20.27
2023-04-08T01:18:10.910Z,21.97
2023-04-08T01:20:39.375Z,18.83
2023-04-08T01:23:37.293Z,22.77
2023-04-08T01:26:05.348Z,19.63
2023-04-08T01:28:32.220Z,21.23
2023-04-08T01:31:01.721Z,24.77
2023-04-08T01:33:29.205Z,19.50
2023-04-08T01:35:56.542Z,20.67
2023-04-08T01:38:23.978Z,18.80
2023-04-08T01:40:51.968Z,21.47
2023-04-08T01:43:19.944Z,18.37
2023-04-08T01:45:48.140Z,18.53
2023-04-08T01:48:15.018Z,16.63
2023-04-08T01:50:42.620Z,21.00
2023-04-08T01:53:10.593Z,19.53
2023-04-08T01:55:38.867Z,20.93
2023-04-08T01:58:06.095Z,16.20
2023-04-08T02:00:35.215Z,21.30
2023-04-08T02:03:03.290Z,16.97
2023-04-08T02:05:31.494Z,20.90
2023-04-08T02:07:59.603Z,17.63
2023-04-08T02:10:27.885Z,21.13
2023-04-08T02:12:55.114Z,18.20
2023-04-08T02:15:23.114Z,18.13
2023-04-08T02:17:56.420Z,19.17
2023-04-08T02:21:10.516Z,19.30
2023-04-08T02:23:40.045Z,18.43
2023-04-08T02:26:09.075Z,18.57
2023-04-08T02:28:36.671Z,18.20
2023-04-08T02:31:05.867Z,16.23
2023-04-08T02:33:34.097Z,18.53
2023-04-08T02:36:00.956Z,17.63
2023-04-08T02:38:30.764Z,20.60
2023-04-08T02:40:58.748Z,18.80
2023-04-08T02:43:32.589Z,18.03
2023-04-08T02:46:00.833Z,18.40
2023-04-08T02:48:28.467Z,17.50
2023-04-08T02:50:56.325Z,19.13
2023-04-08T02:53:24.876Z,19.40
2023-04-08T02:55:52.757Z,17.00
2023-04-08T02:58:20.523Z,15.40
2023-04-08T03:00:48.564Z,18.70
2023-04-08T03:03:16.576Z,21.17
2023-04-08T03:05:44.625Z,22.70
2023-04-08T03:08:12.069Z,18.37
2023-04-08T03:10:39.942Z,22.13
2023-04-08T03:13:08.038Z,18.87
2023-04-08T03:15:35.668Z,18.53
2023-04-08T03:18:03.425Z,17.20
2023-04-08T03:20:31.164Z,17.50
2023-04-08T03:22:59.288Z,17.90
2023-04-08T03:25:27.363Z,20.70
2023-04-08T03:27:58.311Z,19.00
2023-04-08T03:30:26.350Z,19.30
2023-04-08T03:32:54.106Z,17.73
2023-04-08T03:35:21.853Z,17.83
2023-04-08T03:37:49.748Z,23.47
2023-04-08T03:40:18.419Z,21.83
2023-04-08T03:42:46.859Z,21.47
2023-04-08T03:45:14.897Z,20.33
2023-04-08T03:47:42.888Z,21.40
2023-04-08T03:50:12.665Z,22.10
2023-04-08T03:52:40.544Z,22.30
2023-04-08T03:55:10.598Z,21.93
2023-04-08T03:57:38.708Z,22.87
2023-04-08T04:00:10.097Z,20.33
2023-04-08T04:02:38.393Z,20.17
2023-04-08T04:05:07.214Z,26.33
2023-04-08T04:07:35.621Z,19.43
2023-04-08T04:10:03.391Z,18.17
2023-04-08T04:12:33.302Z,20.23
2023-04-08T04:15:01.059Z,19.37
2023-04-08T04:17:29.111Z,25.53
2023-04-08T04:19:56.739Z,18.40
2023-04-08T04:22:24.717Z,23.47
2023-04-08T04:24:52.860Z,23.33
2023-04-08T04:27:20.936Z,20.40
2023-04-08T04:29:49.181Z,20.70
2023-04-08T04:32:17.065Z,19.67
2023-04-08T04:34:44.789Z,20.10
2023-04-08T04:37:12.416Z,21.27
2023-04-08T04:39:47.628Z,18.93
2023-04-08T04:42:15.628Z,19.43
2023-04-08T04:44:43.207Z,24.30
2023-04-08T04:47:11.527Z,19.80
2023-04-08T04:49:40.384Z,23.43
2023-04-08T04:52:08.230Z,27.50
2023-04-08T04:54:36.188Z,22.70
2023-04-08T04:57:03.848Z,22.67
2023-04-08T04:59:31.950Z,20.83
2023-04-08T05:02:00.531Z,20.73
2023-04-08T05:04:28.650Z,21.63
2023-04-08T05:06:56.417Z,23.77
2023-04-08T05:09:24.591Z,21.87
2023-04-08T05:11:52.461Z,20.73
2023-04-08T05:14:20.033Z,25.37
2023-04-08T05:16:48.300Z,22.37
2023-04-08T05:19:16.042Z,21.20
2023-04-08T05:21:44.022Z,20.30
2023-04-08T05:24:11.952Z,20.93
2023-04-08T05:26:39.676Z,21.17
2023-04-08T05:29:07.633Z,25.57
2023-04-08T05:31:35.570Z,27.40
2023-04-08T05:34:03.547Z,21.97
2023-04-08T05:36:31.877Z,23.13
2023-04-08T05:39:01.116Z,25.27
2023-04-08T05:41:30.164Z,22.73
2023-04-08T05:44:00.933Z,23.30
2023-04-08T05:46:29.032Z,23.87
2023-04-08T05:48:57.256Z,29.80
2023-04-08T05:51:25.415Z,24.27
2023-04-08T05:53:53.718Z,24.33
2023-04-08T05:56:23.462Z,29.07
2023-04-08T05:58:51.267Z,22.57
2023-04-08T06:01:22.944Z,22.97
2023-04-08T06:03:50.412Z,25.13
2023-04-08T06:06:20.677Z,22.30
2023-04-08T06:08:48.784Z,24.50
2023-04-08T06:11:16.439Z,25.77
2023-04-08T06:13:44.522Z,25.70
2023-04-08T06:16:13.830Z,24.10
2023-04-08T06:18:41.691Z,23.23
2023-04-08T06:21:09.864Z,27.37
2023-04-08T06:23:37.806Z,27.37
2023-04-08T06:26:05.956Z,22.63
2023-04-08T06:28:34.041Z,24.70
2023-04-08T06:31:01.862Z,23.17
2023-04-08T06:33:29.438Z,26.17
2023-04-08T06:36:06.358Z,19.93
2023-04-08T06:41:07.179Z,15.48
2023-04-08T06:43:35.575Z,20.57
2023-04-08T06:46:02.618Z,26.93
2023-04-08T06:48:33.070Z,24.20
2023-04-08T06:51:00.880Z,24.80
2023-04-08T06:53:33.624Z,22.07
2023-04-08T06:56:01.464Z,22.83
2023-04-08T06:58:29.912Z,23.93
2023-04-08T07:00:57.597Z,22.53
2023-04-08T07:03:25.107Z,23.33
2023-04-08T07:05:53.397Z,25.83
2023-04-08T07:08:20.969Z,21.23
2023-04-08T07:10:48.772Z,23.53
2023-04-08T07:13:17.022Z,25.80
2023-04-08T07:15:45.103Z,22.60
2023-04-08T07:18:14.028Z,24.20
2023-04-08T07:20:49.420Z,26.20
2023-04-08T07:23:17.841Z,26.33
2023-04-08T07:25:46.097Z,27.63
2023-04-08T07:28:14.145Z,26.63
2023-04-08T07:30:42.091Z,22.27
2023-04-08T07:33:09.758Z,24.40
2023-04-08T07:35:38.026Z,24.87
2023-04-08T07:38:10.140Z,25.53
2023-04-08T07:40:38.069Z,20.73
2023-04-08T07:43:05.758Z,24.43
2023-04-08T07:45:33.780Z,23.73
2023-04-08T07:48:01.616Z,22.20
2023-04-08T07:50:29.667Z,22.10
2023-04-08T07:52:57.322Z,26.30
2023-04-08T07:55:25.499Z,27.10
2023-04-08T07:57:53.193Z,26.90
2023-04-08T08:00:21.906Z,24.13
2023-04-08T08:02:50.228Z,24.83
2023-04-08T08:05:18.890Z,26.33
2023-04-08T08:07:46.890Z,27.03
2023-04-08T08:10:14.386Z,29.10
2023-04-08T08:12:42.117Z,24.27
2023-04-08T08:15:12.422Z,24.07
2023-04-08T08:17:40.379Z,22.10
2023-04-08T08:20:10.662Z,22.73
2023-04-08T08:22:47.120Z,23.87
2023-04-08T08:25:26.127Z,22.87
2023-04-08T08:27:55.506Z,21.53
2023-04-08T08:30:29.502Z,23.80
2023-04-08T08:32:59.186Z,25.57
2023-04-08T08:35:26.948Z,24.40
2023-04-08T08:37:55.339Z,22.37
2023-04-08T08:40:23.670Z,22.00
2023-04-08T08:42:52.549Z,23.80
2023-04-08T08:45:20.596Z,26.37
2023-04-08T08:47:50.830Z,25.73
2023-04-08T08:50:19.371Z,25.23
2023-04-08T08:52:51.303Z,24.73
2023-04-08T08:55:50.245Z,26.30
2023-04-08T08:58:13.872Z,23.03
2023-04-08T09:00:45.176Z,20.70
2023-04-08T09:03:27.664Z,21.80
2023-04-08T09:05:59.310Z,21.77
2023-04-08T09:08:55.960Z,20.67
2023-04-08T09:11:23.909Z,18.10
2023-04-08T09:13:54.364Z,19.10
2023-04-08T09:16:23.524Z,14.63
2023-04-08T09:18:51.677Z,12.67
2023-04-08T09:21:19.266Z,15.07
2023-04-08T09:23:46.003Z,12.30
2023-04-08T09:26:39.297Z,8.73
2023-04-08T09:29:24.016Z,9.97
2023-04-08T09:31:56.784Z,8.33
2023-04-08T09:34:24.459Z,10.77
2023-04-08T09:36:52.448Z,11.30
2023-04-08T09:39:20.564Z,8.90
2023-04-08T09:41:50.484Z,7.70
2023-04-08T09:44:18.647Z,7.97
2023-04-08T09:46:51.630Z,7.10
2023-04-08T09:49:27.292Z,7.93
2023-04-08T09:52:01.216Z,7.53
2023-04-08T09:55:07.116Z,9.27
2023-04-08T09:57:51.736Z,6.20
2023-04-08T10:00:19.299Z,9.97
2023-04-08T10:03:12.373Z,7.90
2023-04-08T10:05:41.133Z,7.57
2023-04-08T10:08:08.442Z,8.40
2023-04-08T10:10:37.126Z,9.67
2023-04-08T10:13:04.853Z,12.30
2023-04-08T10:15:34.032Z,11.73
2023-04-08T10:18:08.034Z,13.50
2023-04-08T10:20:35.226Z,16.87
2023-04-08T10:23:03.517Z,14.43
2023-04-08T10:25:34.671Z,17.67
2023-04-08T10:28:23.039Z,16.57
2023-04-08T10:30:54.846Z,15.47
2023-04-08T10:33:54.241Z,14.87
2023-04-08T10:36:22.421Z,11.47
2023-04-08T10:38:50.114Z,12.53
2023-04-08T10:41:24.550Z,13.07
2023-04-08T10:43:52.745Z,14.87
2023-04-08T10:46:21.032Z,12.10
2023-04-08T10:49:01.887Z,10.23
2023-04-08T10:51:35.152Z,14.40
2023-04-08T10:54:32.800Z,11.23
2023-04-08T10:57:00.848Z,12.83
2023-04-08T10:59:30.599Z,12.63
2023-04-08T11:01:58.743Z,10.60
2023-04-08T11:04:27.263Z,12.23
2023-04-08T11:06:54.876Z,10.40
2023-04-08T11:09:22.949Z,13.50
2023-04-08T11:11:50.161Z,12.67
2023-04-08T11:14:19.685Z,11.10
2023-04-08T11:16:48.126Z,12.33
2023-04-08T11:19:15.607Z,10.43
2023-04-08T11:21:43.526Z,12.07
2023-04-08T11:24:12.089Z,9.93
2023-04-08T11:26:39.775Z,11.52
2023-04-08T11:29:07.042Z,10.50
2023-04-08T11:31:34.794Z,10.48
2023-04-08T11:34:02.382Z,10.93
2023-04-08T11:36:30.425Z,10.27
2023-04-08T11:38:58.478Z,10.73
2023-04-08T11:41:26.695Z,11.13
2023-04-08T11:43:55.825Z,10.70
2023-04-08T11:46:23.071Z,9.50
2023-04-08T11:49:23.305Z,8.40
2023-04-08T11:52:00.476Z,9.60
2023-04-08T11:54:28.882Z,11.20
2023-04-08T11:56:58.304Z,9.70
2023-04-08T11:59:28.942Z,10.70
2023-04-08T12:01:57.502Z,10.57
2023-04-08T12:04:25.671Z,10.90
2023-04-08T12:06:58.289Z,11.17
2023-04-08T12:09:26.353Z,11.07
2023-04-08T12:11:53.860Z,10.37
2023-04-08T12:14:26.782Z,10.87
2023-04-08T12:16:56.508Z,10.97
2023-04-08T12:19:24.554Z,10.87
2023-04-08T12:21:52.702Z,10.07
2023-04-08T12:24:23.627Z,12.23
2023-04-08T12:26:51.304Z,9.60
2023-04-08T12:29:19.600Z,9.93
2023-04-08T12:31:48.355Z,9.43
2023-04-08T12:34:16.908Z,12.32
2023-04-08T12:36:45.008Z,13.15
2023-04-08T12:39:13.028Z,9.23
2023-04-08T12:41:41.227Z,8.50
2023-04-08T12:44:09.301Z,8.03
2023-04-08T12:46:37.369Z,8.97
2023-04-08T12:49:06.008Z,8.80
2023-04-08T12:51:34.068Z,10.10
2023-04-08T12:54:02.099Z,7.67
2023-04-08T12:56:30.086Z,10.03
2023-04-08T12:58:58.048Z,6.75
2023-04-08T13:01:25.420Z,10.10
2023-04-08T13:03:53.479Z,7.95
2023-04-08T13:06:21.702Z,6.60
2023-04-08T13:08:50.675Z,8.05
2023-04-08T13:11:18.914Z,8.25
2023-04-08T13:13:46.945Z,10.43
2023-04-08T13:16:15.664Z,8.73
2023-04-08T13:18:43.938Z,7.82
2023-04-08T13:21:12.252Z,8.35
2023-04-08T13:23:40.178Z,6.03
2023-04-08T13:26:07.835Z,6.40
2023-04-08T13:28:49.763Z,8.07
2023-04-08T13:31:24.280Z,7.57
2023-04-08T13:33:58.380Z,8.38
2023-04-08T13:36:28.727Z,7.75
2023-04-08T13:38:56.934Z,6.38
2023-04-08T13:41:25.479Z,7.57
2023-04-08T13:43:53.814Z,6.57
2023-04-08T13:46:22.038Z,6.43
2023-04-08T13:48:50.527Z,6.03
2023-04-08T13:51:18.665Z,7.20
2023-04-08T13:53:46.302Z,7.50
2023-04-08T13:56:13.940Z,5.47
2023-04-08T13:58:41.728Z,6.38
2023-04-08T14:01:09.975Z,5.75
2023-04-08T14:03:37.845Z,5.95
2023-04-08T14:06:06.805Z,6.65
2023-04-08T14:08:35.399Z,6.35
2023-04-08T14:11:03.586Z,5.88
2023-04-08T14:13:32.459Z,5.47
2023-04-08T14:16:02.405Z,4.50
2023-04-08T14:18:31.202Z,7.18
2023-04-08T14:20:59.388Z,4.75
2023-04-08T14:23:27.861Z,4.50
2023-04-08T14:25:55.842Z,5.10
2023-04-08T14:28:23.833Z,9.38
2023-04-08T14:30:51.579Z,5.45
2023-04-08T14:33:19.233Z,5.70
2023-04-08T14:35:47.855Z,5.20
2023-04-08T14:38:16.301Z,5.25
2023-04-08T14:40:44.346Z,6.25
2023-04-08T14:43:13.643Z,5.25
2023-04-08T14:45:41.667Z,5.47
2023-04-08T14:48:09.345Z,8.30
2023-04-08T14:50:36.978Z,6.63
2023-04-08T14:53:04.901Z,4.75
2023-04-08T14:55:32.879Z,3.90
2023-04-08T14:58:01.292Z,4.60
2023-04-08T15:00:28.926Z,4.65
2023-04-08T15:02:57.092Z,4.43
2023-04-08T15:05:25.372Z,5.00
2023-04-08T15:07:53.445Z,5.65
2023-04-08T15:10:24.076Z,5.43
2023-04-08T15:12:52.236Z,4.38
2023-04-08T15:15:20.250Z,5.70
2023-04-08T15:17:50.138Z,9.43
2023-04-08T15:20:20.252Z,4.90
2023-04-08T15:22:48.163Z,5.43
2023-04-08T15:25:16.177Z,5.53
2023-04-08T15:27:44.097Z,5.20
2023-04-08T15:30:13.323Z,6.20
2023-04-08T15:32:41.973Z,4.37
2023-04-08T15:35:11.476Z,4.70
2023-04-08T15:37:39.151Z,6.30
2023-04-08T15:40:11.764Z,5.63
2023-04-08T15:42:39.790Z,4.80
2023-04-08T15:45:09.822Z,6.57
2023-04-08T15:47:37.325Z,10.57
2023-04-08T15:50:06.537Z,6.77
2023-04-08T15:52:35.240Z,6.67
2023-04-08T15:55:02.919Z,6.80
2023-04-08T15:57:32.344Z,6.67
2023-04-08T16:00:00.446Z,6.77
2023-04-08T16:02:28.447Z,7.90
2023-04-08T16:04:56.069Z,6.27
2023-04-08T16:07:24.840Z,6.03
2023-04-08T16:09:53.001Z,10.17
2023-04-08T16:12:20.625Z,8.47
2023-04-08T16:14:48.145Z,8.07
2023-04-08T16:17:16.483Z,6.17
2023-04-08T16:19:44.608Z,7.93
2023-04-08T16:22:13.097Z,4.10
2023-04-08T16:24:41.140Z,5.23
2023-04-08T16:27:09.334Z,5.37
2023-04-08T16:29:36.870Z,6.00
2023-04-08T16:32:05.375Z,8.57
2023-04-08T16:34:32.674Z,4.83
2023-04-08T16:37:00.729Z,5.30
2023-04-08T16:39:28.855Z,5.60
2023-04-08T16:41:56.341Z,6.03
2023-04-08T16:44:23.988Z,4.90
2023-04-08T16:46:51.863Z,3.90
2023-04-08T16:49:19.698Z,4.80
2023-04-08T16:51:47.543Z,4.70
2023-04-08T16:54:15.510Z,7.87
2023-04-08T16:56:45.621Z,6.60
2023-04-08T16:59:13.643Z,9.83
2023-04-08T17:01:45.776Z,6.27
2023-04-08T17:04:13.820Z,5.37
2023-04-08T17:06:42.265Z,4.20
2023-04-08T17:09:09.957Z,2.60
2023-04-08T17:11:37.822Z,3.03
2023-04-08T17:14:05.710Z,5.17
2023-04-08T17:16:33.645Z,4.03
2023-04-08T17:19:01.820Z,5.57
2023-04-08T17:21:29.309Z,4.20
2023-04-08T17:23:57.042Z,5.03
2023-04-08T17:26:25.043Z,4.67
2023-04-08T17:28:53.096Z,5.90
2023-04-08T17:31:20.910Z,4.83
2023-04-08T17:33:49.198Z,4.73
2023-04-08T17:36:17.846Z,4.03
2023-04-08T17:38:47.360Z,3.80
2023-04-08T17:41:21.603Z,4.67
2023-04-08T17:43:58.405Z,5.40
2023-04-08T17:46:26.757Z,5.07
2023-04-08T17:48:54.831Z,9.70
2023-04-08T17:51:23.517Z,7.50
2023-04-08T17:53:51.414Z,6.40
2023-04-08T17:56:19.564Z,6.63
2023-04-08T17:58:48.336Z,6.60
2023-04-08T18:01:16.167Z,5.93
2023-04-08T18:03:44.836Z,8.23
2023-04-08T18:06:12.675Z,11.87
2023-04-08T18:08:40.452Z,8.03
2023-04-08T18:11:07.801Z,6.50
2023-04-08T18:13:35.326Z,7.27
2023-04-08T18:16:02.725Z,7.03
2023-04-08T18:18:30.768Z,7.30
2023-04-08T18:20:58.379Z,6.67
2023-04-08T18:23:26.646Z,5.57
2023-04-08T18:25:54.619Z,6.50
2023-04-08T18:28:22.912Z,8.67
2023-04-08T18:30:57.318Z,8.63
2023-04-08T18:33:25.717Z,6.60
2023-04-08T18:35:53.478Z,6.17
2023-04-08T18:38:20.878Z,6.90
2023-04-08T18:40:49.045Z,6.70
2023-04-08T18:43:16.657Z,7.13
2023-04-08T18:45:44.152Z,6.63
2023-04-08T18:48:12.487Z,7.40
2023-04-08T18:50:40.397Z,6.17
2023-04-08T18:53:08.048Z,6.23
2023-04-08T18:55:38.725Z,8.13
2023-04-08T18:58:06.350Z,7.30
2023-04-08T19:00:34.292Z,8.67
2023-04-08T19:03:03.552Z,7.63
2023-04-08T19:05:33.089Z,8.60
2023-04-08T19:08:03.503Z,10.73
2023-04-08T19:10:31.928Z,8.53
2023-04-08T19:12:59.246Z,8.73
2023-04-08T19:15:27.344Z,8.30
2023-04-08T19:17:55.090Z,8.87
2023-04-08T19:20:23.135Z,9.33
2023-04-08T19:22:50.495Z,8.70
2023-04-08T19:25:19.940Z,8.53
2023-04-08T19:27:47.733Z,8.63
2023-04-08T19:30:15.541Z,8.50
2023-04-08T19:32:43.185Z,12.17
2023-04-08T19:35:13.501Z,8.40
2023-04-08T19:37:41.155Z,8.27
2023-04-08T19:40:11.436Z,7.93
2023-04-08T19:42:39.701Z,8.77
2023-04-08T19:45:10.968Z,8.27
2023-04-08T19:47:39.726Z,9.93
2023-04-08T19:50:10.606Z,9.10
2023-04-08T19:52:39.369Z,13.73
2023-04-08T19:55:08.082Z,10.30
2023-04-08T19:57:37.383Z,10.93
2023-04-08T20:00:07.155Z,11.10
2023-04-08T20:02:34.968Z,9.47
2023-04-08T20:05:03.297Z,13.93
2023-04-08T20:07:31.000Z,11.67
2023-04-08T20:09:58.935Z,12.93
2023-04-08T20:12:26.908Z,13.40
2023-04-08T20:14:54.618Z,15.83
2023-04-08T20:17:21.817Z,14.27
2023-04-08T20:19:49.924Z,14.20
2023-04-08T20:22:17.619Z,17.20
2023-04-08T20:24:46.121Z,15.30
2023-04-08T20:27:14.141Z,13.17
2023-04-08T20:29:42.949Z,13.60
2023-04-08T20:32:11.061Z,13.07
2023-04-08T20:34:38.647Z,14.20
2023-04-08T20:37:07.393Z,15.70
2023-04-08T20:39:35.123Z,12.77
2023-04-08T20:42:02.933Z,13.50
2023-04-08T20:44:31.302Z,14.37
2023-04-08T20:46:59.461Z,19.63
2023-04-08T20:49:27.379Z,16.67
2023-04-08T20:51:55.462Z,22.27
2023-04-08T20:54:23.465Z,14.17
2023-04-08T20:56:51.419Z,12.97
2023-04-08T20:59:19.213Z,10.27
2023-04-08T21:01:46.909Z,11.67
2023-04-08T21:04:15.237Z,13.90
2023-04-08T21:06:42.938Z,14.07
2023-04-08T21:09:11.502Z,14.13
2023-04-08T21:11:39.376Z,16.17
2023-04-08T21:14:07.385Z,14.87
2023-04-08T21:16:35.441Z,15.63
2023-04-08T21:19:04.071Z,14.60
2023-04-08T21:21:32.355Z,15.27
2023-04-08T21:24:00.666Z,14.03
2023-04-08T21:26:28.298Z,13.90
2023-04-08T21:28:55.844Z,13.73
2023-04-08T21:31:23.420Z,12.97
2023-04-08T21:33:51.149Z,14.47
2023-04-08T21:36:20.335Z,13.33
2023-04-08T21:38:48.091Z,18.00
2023-04-08T21:41:15.723Z,16.20
2023-04-08T21:43:43.550Z,22.33
2023-04-08T21:46:11.529Z,25.60
2023-04-08T21:48:39.170Z,15.33
2023-04-08T21:51:07.090Z,18.50
2023-04-08T21:53:35.375Z,26.93
2023-04-08T21:56:03.455Z,18.63
2023-04-08T21:58:31.269Z,17.30
2023-04-08T22:00:59.136Z,15.67
2023-04-08T22:03:27.674Z,18.07
2023-04-08T22:05:55.609Z,18.00
2023-04-08T22:08:23.246Z,18.43
2023-04-08T22:10:51.460Z,17.80
2023-04-08T22:13:20.622Z,15.83
2023-04-08T22:15:48.610Z,14.70
2023-04-08T22:18:17.466Z,15.30
2023-04-08T22:20:45.395Z,26.73
2023-04-08T22:23:13.133Z,29.67
2023-04-08T22:25:41.081Z,40.50
2023-04-08T22:28:09.749Z,28.63
2023-04-08T22:30:37.425Z,30.60
2023-04-08T22:33:05.332Z,23.37
2023-04-08T22:35:33.500Z,20.87
2023-04-08T22:38:01.261Z,18.17
2023-04-08T22:40:29.734Z,13.70
2023-04-08T22:42:58.032Z,13.63
2023-04-08T22:45:26.395Z,13.67
2023-04-08T22:47:54.534Z,12.23
2023-04-08T22:50:23.249Z,11.20
2023-04-08T22:52:51.436Z,13.57
2023-04-08T22:55:19.688Z,15.20
2023-04-08T22:57:47.553Z,11.73
2023-04-08T23:00:16.752Z,17.97
2023-04-08T23:02:44.948Z,16.73
2023-04-08T23:05:13.034Z,12.50
2023-04-08T23:07:40.759Z,12.90
2023-04-08T23:10:11.546Z,14.17
2023-04-08T23:12:40.513Z,13.60
2023-04-08T23:15:08.894Z,12.57
2023-04-08T23:17:37.070Z,10.73
2023-04-08T23:20:05.847Z,13.50
2023-04-08T23:22:33.584Z,12.20
2023-04-08T23:25:01.532Z,11.83
2023-04-08T23:27:29.524Z,14.77
2023-04-08T23:29:57.053Z,17.03
2023-04-08T23:32:25.196Z,15.20
2023-04-08T23:34:53.234Z,12.77
2023-04-08T23:37:20.991Z,13.83
2023-04-08T23:39:53.118Z,12.00
2023-04-08T23:42:20.878Z,14.03
2023-04-08T23:44:49.048Z,15.27
2023-04-08T23:47:16.735Z,11.63
2023-04-08T23:49:45.044Z,13.07
2023-04-08T23:52:13.200Z,14.53
2023-04-08T23:54:41.250Z,12.70
2023-04-08T23:57:08.875Z,11.97
2023-04-08T23:59:36.424Z,13.43
